sensor_id;sensor_type;location;lat;lon;timestamp;temperature;humidity
45807;DHT22;31507;51.494;7.518;2022-07-10T00:01:07;13.40;99.90
45807;DHT22;31507;51.494;7.518;2022-07-10T00:03:33;13.40;99.90
45807;DHT22;31507;51.494;7.518;2022-07-10T00:05:59;13.40;99.90
45807;DHT22;31507;51.494;7.518;2022-07-10T00:08:24;13.40;99.90
45807;DHT22;31507;51.494;7.518;2022-07-10T00:10:50;13.40;99.90
45807;DHT22;31507;51.494;7.518;2022-07-10T00:13:16;13.40;99.90
45807;DHT22;31507;51.494;7.518;2022-07-10T00:15:41;13.40;99.90
45807;DHT22;31507;51.494;7.518;2022-07-10T00:18:07;13.40;99.90
45807;DHT22;31507;51.494;7.518;2022-07-10T00:20:33;13.40;99.90
45807;DHT22;31507;51.494;7.518;2022-07-10T00:22:59;13.40;99.90
45807;DHT22;31507;51.494;7.518;2022-07-10T00:25:25;13.40;99.90
45807;DHT22;31507;51.494;7.518;2022-07-10T00:27:50;13.40;99.90
45807;DHT22;31507;51.494;7.518;2022-07-10T00:30:16;13.40;99.90
45807;DHT22;31507;51.494;7.518;2022-07-10T00:32:42;13.40;99.90
45807;DHT22;31507;51.494;7.518;2022-07-10T00:35:08;13.30;99.90
45807;DHT22;31507;51.494;7.518;2022-07-10T00:37:34;13.30;99.90
45807;DHT22;31507;51.494;7.518;2022-07-10T00:39:59;13.30;99.90
45807;DHT22;31507;51.494;7.518;2022-07-10T00:42:25;13.30;99.90
45807;DHT22;31507;51.494;7.518;2022-07-10T00:44:51;13.30;99.90
45807;DHT22;31507;51.494;7.518;2022-07-10T00:47:17;13.30;99.90
45807;DHT22;31507;51.494;7.518;2022-07-10T00:49:45;13.30;99.90
45807;DHT22;31507;51.494;7.518;2022-07-10T00:52:14;13.30;99.90
45807;DHT22;31507;51.494;7.518;2022-07-10T00:54:42;13.30;99.90
45807;DHT22;31507;51.494;7.518;2022-07-10T00:57:09;13.30;99.90
45807;DHT22;31507;51.494;7.518;2022-07-10T00:59:37;13.20;99.90
45807;DHT22;31507;51.494;7.518;2022-07-10T01:02:04;13.20;99.90
45807;DHT22;31507;51.494;7.518;2022-07-10T01:04:31;13.20;99.90
45807;DHT22;31507;51.494;7.518;2022-07-10T01:06:56;13.20;99.90
45807;DHT22;31507;51.494;7.518;2022-07-10T01:09:22;13.30;99.90
45807;DHT22;31507;51.494;7.518;2022-07-10T01:11:48;13.20;99.90
45807;DHT22;31507;51.494;7.518;2022-07-10T01:14:15;13.20;99.90
45807;DHT22;31507;51.494;7.518;2022-07-10T01:16:41;13.20;99.90
45807;DHT22;31507;51.494;7.518;2022-07-10T01:19:07;13.20;99.90
45807;DHT22;31507;51.494;7.518;2022-07-10T01:21:35;13.20;99.90
45807;DHT22;31507;51.494;7.518;2022-07-10T01:24:05;13.20;99.90
45807;DHT22;31507;51.494;7.518;2022-07-10T01:26:31;13.10;99.90
45807;DHT22;31507;51.494;7.518;2022-07-10T01:28:57;13.10;99.90
45807;DHT22;31507;51.494;7.518;2022-07-10T01:31:27;13.20;99.90
45807;DHT22;31507;51.494;7.518;2022-07-10T01:33:54;13.10;99.90
45807;DHT22;31507;51.494;7.518;2022-07-10T01:36:21;13.20;99.90
45807;DHT22;31507;51.494;7.518;2022-07-10T01:38:47;13.10;99.90
45807;DHT22;31507;51.494;7.518;2022-07-10T01:41:13;13.10;99.90
45807;DHT22;31507;51.494;7.518;2022-07-10T01:43:38;13.20;99.90
45807;DHT22;31507;51.494;7.518;2022-07-10T01:46:10;13.10;99.90
45807;DHT22;31507;51.494;7.518;2022-07-10T01:48:39;13.10;99.90
45807;DHT22;31507;51.494;7.518;2022-07-10T01:51:06;13.10;99.90
45807;DHT22;31507;51.494;7.518;2022-07-10T01:53:32;13.10;99.90
45807;DHT22;31507;51.494;7.518;2022-07-10T01:55:58;13.10;99.90
45807;DHT22;31507;51.494;7.518;2022-07-10T01:58:25;13.10;99.90
45807;DHT22;31507;51.494;7.518;2022-07-10T02:00:50;13.10;99.90
45807;DHT22;31507;51.494;7.518;2022-07-10T02:03:16;13.10;99.90
45807;DHT22;31507;51.494;7.518;2022-07-10T02:06:00;13.00;99.90
45807;DHT22;31507;51.494;7.518;2022-07-10T02:08:26;13.00;99.90
45807;DHT22;31507;51.494;7.518;2022-07-10T02:10:51;13.00;99.90
45807;DHT22;31507;51.494;7.518;2022-07-10T02:13:17;13.00;99.90
45807;DHT22;31507;51.494;7.518;2022-07-10T02:15:46;13.00;99.90
45807;DHT22;31507;51.494;7.518;2022-07-10T02:18:12;13.00;99.90
45807;DHT22;31507;51.494;7.518;2022-07-10T02:20:38;13.00;99.90
45807;DHT22;31507;51.494;7.518;2022-07-10T02:23:04;13.00;99.90
45807;DHT22;31507;51.494;7.518;2022-07-10T02:25:29;13.00;99.90
45807;DHT22;31507;51.494;7.518;2022-07-10T02:27:55;13.00;99.90
45807;DHT22;31507;51.494;7.518;2022-07-10T02:30:21;13.00;99.90
45807;DHT22;31507;51.494;7.518;2022-07-10T02:32:46;13.00;99.90
45807;DHT22;31507;51.494;7.518;2022-07-10T02:35:12;13.00;99.90
45807;DHT22;31507;51.494;7.518;2022-07-10T02:37:37;12.90;99.90
45807;DHT22;31507;51.494;7.518;2022-07-10T02:40:03;13.00;99.90
45807;DHT22;31507;51.494;7.518;2022-07-10T02:42:29;13.00;99.90
45807;DHT22;31507;51.494;7.518;2022-07-10T02:44:54;13.00;99.90
45807;DHT22;31507;51.494;7.518;2022-07-10T02:47:20;13.00;99.90
45807;DHT22;31507;51.494;7.518;2022-07-10T02:49:46;13.00;99.90
45807;DHT22;31507;51.494;7.518;2022-07-10T02:52:11;12.90;99.90
45807;DHT22;31507;51.494;7.518;2022-07-10T02:54:37;12.90;99.90
45807;DHT22;31507;51.494;7.518;2022-07-10T02:57:03;12.90;99.90
45807;DHT22;31507;51.494;7.518;2022-07-10T02:59:29;12.90;99.90
45807;DHT22;31507;51.494;7.518;2022-07-10T03:01:54;12.90;99.90
45807;DHT22;31507;51.494;7.518;2022-07-10T03:04:20;12.90;99.90
45807;DHT22;31507;51.494;7.518;2022-07-10T03:06:46;13.00;99.90
45807;DHT22;31507;51.494;7.518;2022-07-10T03:09:11;12.90;99.90
45807;DHT22;31507;51.494;7.518;2022-07-10T03:11:37;12.90;99.90
45807;DHT22;31507;51.494;7.518;2022-07-10T03:14:02;12.90;99.90
45807;DHT22;31507;51.494;7.518;2022-07-10T03:16:29;12.90;99.90
45807;DHT22;31507;51.494;7.518;2022-07-10T03:18:54;12.90;99.90
45807;DHT22;31507;51.494;7.518;2022-07-10T03:21:20;12.90;99.90
45807;DHT22;31507;51.494;7.518;2022-07-10T03:23:46;12.80;99.90
45807;DHT22;31507;51.494;7.518;2022-07-10T03:26:11;12.90;99.90
45807;DHT22;31507;51.494;7.518;2022-07-10T03:28:39;12.90;99.90
45807;DHT22;31507;51.494;7.518;2022-07-10T03:31:05;12.90;99.90
45807;DHT22;31507;51.494;7.518;2022-07-10T03:33:30;12.90;99.90
45807;DHT22;31507;51.494;7.518;2022-07-10T03:35:56;12.90;99.90
45807;DHT22;31507;51.494;7.518;2022-07-10T03:38:22;12.90;99.90
45807;DHT22;31507;51.494;7.518;2022-07-10T03:40:47;12.90;99.90
45807;DHT22;31507;51.494;7.518;2022-07-10T03:43:14;12.90;99.90
45807;DHT22;31507;51.494;7.518;2022-07-10T03:45:40;12.80;99.90
45807;DHT22;31507;51.494;7.518;2022-07-10T03:48:06;12.80;99.90
45807;DHT22;31507;51.494;7.518;2022-07-10T03:50:33;12.80;99.90
45807;DHT22;31507;51.494;7.518;2022-07-10T03:52:59;12.80;99.90
45807;DHT22;31507;51.494;7.518;2022-07-10T03:55:25;12.80;99.90
45807;DHT22;31507;51.494;7.518;2022-07-10T03:57:50;12.80;99.90
45807;DHT22;31507;51.494;7.518;2022-07-10T04:00:29;12.80;99.90
45807;DHT22;31507;51.494;7.518;2022-07-10T04:03:03;12.90;99.90
45807;DHT22;31507;51.494;7.518;2022-07-10T04:05:29;12.80;99.90
45807;DHT22;31507;51.494;7.518;2022-07-10T04:07:56;12.90;99.90
45807;DHT22;31507;51.494;7.518;2022-07-10T04:10:22;12.90;99.90
45807;DHT22;31507;51.494;7.518;2022-07-10T04:12:49;12.90;99.90
45807;DHT22;31507;51.494;7.518;2022-07-10T04:15:15;13.00;99.90
45807;DHT22;31507;51.494;7.518;2022-07-10T04:17:41;13.00;99.90
45807;DHT22;31507;51.494;7.518;2022-07-10T04:20:07;13.00;99.90
45807;DHT22;31507;51.494;7.518;2022-07-10T04:22:33;13.00;99.90
45807;DHT22;31507;51.494;7.518;2022-07-10T04:24:59;13.00;99.90
45807;DHT22;31507;51.494;7.518;2022-07-10T04:27:24;13.00;99.90
45807;DHT22;31507;51.494;7.518;2022-07-10T04:29:50;13.10;99.90
45807;DHT22;31507;51.494;7.518;2022-07-10T04:32:16;13.10;99.90
45807;DHT22;31507;51.494;7.518;2022-07-10T04:34:42;13.10;99.90
45807;DHT22;31507;51.494;7.518;2022-07-10T04:37:08;13.20;99.90
45807;DHT22;31507;51.494;7.518;2022-07-10T04:39:35;13.10;99.90
45807;DHT22;31507;51.494;7.518;2022-07-10T04:42:01;13.20;99.90
45807;DHT22;31507;51.494;7.518;2022-07-10T04:44:30;13.20;99.90
45807;DHT22;31507;51.494;7.518;2022-07-10T04:46:56;13.20;99.90
45807;DHT22;31507;51.494;7.518;2022-07-10T04:49:22;13.20;99.90
45807;DHT22;31507;51.494;7.518;2022-07-10T04:51:48;13.20;99.90
45807;DHT22;31507;51.494;7.518;2022-07-10T04:54:14;13.20;99.90
45807;DHT22;31507;51.494;7.518;2022-07-10T04:56:39;13.30;99.90
45807;DHT22;31507;51.494;7.518;2022-07-10T04:59:05;13.30;99.90
45807;DHT22;31507;51.494;7.518;2022-07-10T05:01:31;13.30;99.90
45807;DHT22;31507;51.494;7.518;2022-07-10T05:03:57;13.40;99.90
45807;DHT22;31507;51.494;7.518;2022-07-10T05:06:23;13.50;99.90
45807;DHT22;31507;51.494;7.518;2022-07-10T05:08:48;13.50;99.90
45807;DHT22;31507;51.494;7.518;2022-07-10T05:11:14;13.50;99.90
45807;DHT22;31507;51.494;7.518;2022-07-10T05:13:40;13.50;99.90
45807;DHT22;31507;51.494;7.518;2022-07-10T05:16:09;13.60;99.90
45807;DHT22;31507;51.494;7.518;2022-07-10T05:18:35;13.70;99.90
45807;DHT22;31507;51.494;7.518;2022-07-10T05:21:00;13.70;99.90
45807;DHT22;31507;51.494;7.518;2022-07-10T05:23:26;13.80;99.90
45807;DHT22;31507;51.494;7.518;2022-07-10T05:25:51;13.90;99.90
45807;DHT22;31507;51.494;7.518;2022-07-10T05:28:17;14.00;99.90
45807;DHT22;31507;51.494;7.518;2022-07-10T05:30:43;14.00;99.90
45807;DHT22;31507;51.494;7.518;2022-07-10T05:33:08;14.10;99.90
45807;DHT22;31507;51.494;7.518;2022-07-10T05:35:34;14.20;99.90
45807;DHT22;31507;51.494;7.518;2022-07-10T05:38:00;14.30;99.90
45807;DHT22;31507;51.494;7.518;2022-07-10T05:40:25;14.20;99.90
45807;DHT22;31507;51.494;7.518;2022-07-10T05:42:51;14.30;99.90
45807;DHT22;31507;51.494;7.518;2022-07-10T05:45:18;14.40;99.90
45807;DHT22;31507;51.494;7.518;2022-07-10T05:47:43;14.50;99.90
45807;DHT22;31507;51.494;7.518;2022-07-10T05:50:10;14.50;99.90
45807;DHT22;31507;51.494;7.518;2022-07-10T05:52:37;14.50;99.90
45807;DHT22;31507;51.494;7.518;2022-07-10T05:55:03;14.50;99.90
45807;DHT22;31507;51.494;7.518;2022-07-10T05:57:32;14.50;99.90
45807;DHT22;31507;51.494;7.518;2022-07-10T05:59:57;14.60;99.90
45807;DHT22;31507;51.494;7.518;2022-07-10T06:02:23;14.80;99.90
45807;DHT22;31507;51.494;7.518;2022-07-10T06:04:49;14.80;99.90
45807;DHT22;31507;51.494;7.518;2022-07-10T06:07:15;14.90;99.90
45807;DHT22;31507;51.494;7.518;2022-07-10T06:09:41;15.10;99.90
45807;DHT22;31507;51.494;7.518;2022-07-10T06:12:07;15.10;99.90
45807;DHT22;31507;51.494;7.518;2022-07-10T06:14:33;15.40;99.90
45807;DHT22;31507;51.494;7.518;2022-07-10T06:16:58;15.60;99.90
45807;DHT22;31507;51.494;7.518;2022-07-10T06:19:24;15.70;99.90
45807;DHT22;31507;51.494;7.518;2022-07-10T06:21:50;15.50;99.90
45807;DHT22;31507;51.494;7.518;2022-07-10T06:24:35;15.40;99.90
45807;DHT22;31507;51.494;7.518;2022-07-10T06:27:01;15.30;99.90
45807;DHT22;31507;51.494;7.518;2022-07-10T06:29:26;15.30;99.90
45807;DHT22;31507;51.494;7.518;2022-07-10T06:31:52;15.70;99.90
45807;DHT22;31507;51.494;7.518;2022-07-10T06:34:18;15.60;99.90
45807;DHT22;31507;51.494;7.518;2022-07-10T06:36:44;15.60;99.90
45807;DHT22;31507;51.494;7.518;2022-07-10T06:39:10;15.60;99.90
45807;DHT22;31507;51.494;7.518;2022-07-10T06:41:36;15.60;99.90
45807;DHT22;31507;51.494;7.518;2022-07-10T06:44:01;15.60;99.90
45807;DHT22;31507;51.494;7.518;2022-07-10T06:46:27;15.60;99.90
45807;DHT22;31507;51.494;7.518;2022-07-10T06:48:53;15.70;99.90
45807;DHT22;31507;51.494;7.518;2022-07-10T06:51:19;15.80;99.90
45807;DHT22;31507;51.494;7.518;2022-07-10T06:53:45;16.00;99.60
45807;DHT22;31507;51.494;7.518;2022-07-10T06:56:11;16.00;99.40
45807;DHT22;31507;51.494;7.518;2022-07-10T06:58:37;16.20;99.00
45807;DHT22;31507;51.494;7.518;2022-07-10T07:01:03;16.20;98.50
45807;DHT22;31507;51.494;7.518;2022-07-10T07:03:28;16.30;97.90
45807;DHT22;31507;51.494;7.518;2022-07-10T07:05:54;16.40;97.00
45807;DHT22;31507;51.494;7.518;2022-07-10T07:08:20;16.20;97.00
45807;DHT22;31507;51.494;7.518;2022-07-10T07:10:46;16.10;97.00
45807;DHT22;31507;51.494;7.518;2022-07-10T07:13:11;16.00;97.30
45807;DHT22;31507;51.494;7.518;2022-07-10T07:15:40;15.90;97.70
45807;DHT22;31507;51.494;7.518;2022-07-10T07:18:14;15.80;98.60
45807;DHT22;31507;51.494;7.518;2022-07-10T07:20:41;15.60;97.90
45807;DHT22;31507;51.494;7.518;2022-07-10T07:23:26;15.50;98.50
45807;DHT22;31507;51.494;7.518;2022-07-10T07:25:52;15.40;98.20
45807;DHT22;31507;51.494;7.518;2022-07-10T07:28:18;15.30;98.90
45807;DHT22;31507;51.494;7.518;2022-07-10T07:30:46;15.30;99.30
45807;DHT22;31507;51.494;7.518;2022-07-10T07:33:12;15.20;99.00
45807;DHT22;31507;51.494;7.518;2022-07-10T07:35:38;15.30;99.20
45807;DHT22;31507;51.494;7.518;2022-07-10T07:38:04;15.20;99.40
45807;DHT22;31507;51.494;7.518;2022-07-10T07:40:31;15.20;99.50
45807;DHT22;31507;51.494;7.518;2022-07-10T07:42:57;15.30;99.90
45807;DHT22;31507;51.494;7.518;2022-07-10T07:45:23;15.20;99.10
45807;DHT22;31507;51.494;7.518;2022-07-10T07:47:54;15.20;99.30
45807;DHT22;31507;51.494;7.518;2022-07-10T07:50:25;15.20;99.10
45807;DHT22;31507;51.494;7.518;2022-07-10T07:52:52;15.20;99.50
45807;DHT22;31507;51.494;7.518;2022-07-10T07:55:19;15.20;99.90
45807;DHT22;31507;51.494;7.518;2022-07-10T07:57:46;15.10;99.60
45807;DHT22;31507;51.494;7.518;2022-07-10T08:00:12;14.90;99.90
45807;DHT22;31507;51.494;7.518;2022-07-10T08:02:39;14.70;99.90
45807;DHT22;31507;51.494;7.518;2022-07-10T08:05:05;14.60;99.90
45807;DHT22;31507;51.494;7.518;2022-07-10T08:07:50;14.70;99.90
45807;DHT22;31507;51.494;7.518;2022-07-10T08:10:18;14.70;99.90
45807;DHT22;31507;51.494;7.518;2022-07-10T08:12:44;14.60;99.90
45807;DHT22;31507;51.494;7.518;2022-07-10T08:15:12;14.60;99.90
45807;DHT22;31507;51.494;7.518;2022-07-10T08:17:38;14.60;99.90
45807;DHT22;31507;51.494;7.518;2022-07-10T08:20:05;14.60;99.90
45807;DHT22;31507;51.494;7.518;2022-07-10T08:22:32;14.40;99.90
45807;DHT22;31507;51.494;7.518;2022-07-10T08:24:58;14.50;99.90
45807;DHT22;31507;51.494;7.518;2022-07-10T08:27:24;14.30;99.90
45807;DHT22;31507;51.494;7.518;2022-07-10T08:29:49;14.40;99.90
45807;DHT22;31507;51.494;7.518;2022-07-10T08:32:15;14.40;99.90
45807;DHT22;31507;51.494;7.518;2022-07-10T08:34:41;14.50;99.90
45807;DHT22;31507;51.494;7.518;2022-07-10T08:37:06;14.50;99.90
45807;DHT22;31507;51.494;7.518;2022-07-10T08:39:32;14.60;99.90
45807;DHT22;31507;51.494;7.518;2022-07-10T08:41:59;14.70;99.90
45807;DHT22;31507;51.494;7.518;2022-07-10T08:44:25;14.70;99.90
45807;DHT22;31507;51.494;7.518;2022-07-10T08:46:51;14.70;99.90
45807;DHT22;31507;51.494;7.518;2022-07-10T08:49:17;14.70;99.90
45807;DHT22;31507;51.494;7.518;2022-07-10T08:54:30;14.60;99.90
45807;DHT22;31507;51.494;7.518;2022-07-10T08:56:57;14.70;99.90
45807;DHT22;31507;51.494;7.518;2022-07-10T08:59:27;14.70;99.90
45807;DHT22;31507;51.494;7.518;2022-07-10T09:01:54;14.70;99.90
45807;DHT22;31507;51.494;7.518;2022-07-10T09:04:22;14.70;99.90
45807;DHT22;31507;51.494;7.518;2022-07-10T09:06:48;14.70;99.90
45807;DHT22;31507;51.494;7.518;2022-07-10T09:09:14;14.60;99.90
45807;DHT22;31507;51.494;7.518;2022-07-10T09:11:40;14.70;99.90
45807;DHT22;31507;51.494;7.518;2022-07-10T09:14:09;14.60;99.90
45807;DHT22;31507;51.494;7.518;2022-07-10T09:16:38;14.40;99.90
45807;DHT22;31507;51.494;7.518;2022-07-10T09:19:18;14.50;99.90
45807;DHT22;31507;51.494;7.518;2022-07-10T09:21:46;14.40;99.90
45807;DHT22;31507;51.494;7.518;2022-07-10T09:24:12;14.30;99.90
45807;DHT22;31507;51.494;7.518;2022-07-10T09:26:39;14.10;99.90
45807;DHT22;31507;51.494;7.518;2022-07-10T09:29:13;14.00;99.90
45807;DHT22;31507;51.494;7.518;2022-07-10T09:34:56;14.30;99.90
45807;DHT22;31507;51.494;7.518;2022-07-10T09:37:42;14.60;99.90
45807;DHT22;31507;51.494;7.518;2022-07-10T09:40:09;14.90;99.90
45807;DHT22;31507;51.494;7.518;2022-07-10T09:42:37;15.30;99.90
45807;DHT22;31507;51.494;7.518;2022-07-10T09:45:23;15.30;99.90
45807;DHT22;31507;51.494;7.518;2022-07-10T09:47:56;15.40;99.90
45807;DHT22;31507;51.494;7.518;2022-07-10T09:50:34;15.50;99.90
45807;DHT22;31507;51.494;7.518;2022-07-10T09:53:01;15.60;99.90
45807;DHT22;31507;51.494;7.518;2022-07-10T09:55:29;15.60;99.90
45807;DHT22;31507;51.494;7.518;2022-07-10T10:00:23;15.90;99.90
45807;DHT22;31507;51.494;7.518;2022-07-10T10:03:14;16.00;99.90
45807;DHT22;31507;51.494;7.518;2022-07-10T10:05:53;15.90;99.90
45807;DHT22;31507;51.494;7.518;2022-07-10T10:08:30;16.00;99.90
45807;DHT22;31507;51.494;7.518;2022-07-10T10:10:57;16.20;99.90
45807;DHT22;31507;51.494;7.518;2022-07-10T10:13:26;16.00;99.90
45807;DHT22;31507;51.494;7.518;2022-07-10T10:15:58;16.00;99.90
45807;DHT22;31507;51.494;7.518;2022-07-10T10:18:25;15.90;99.90
45807;DHT22;31507;51.494;7.518;2022-07-10T10:20:53;15.80;99.90
45807;DHT22;31507;51.494;7.518;2022-07-10T10:23:24;15.70;99.90
45807;DHT22;31507;51.494;7.518;2022-07-10T10:25:55;15.70;99.90
45807;DHT22;31507;51.494;7.518;2022-07-10T10:28:22;15.50;99.90
45807;DHT22;31507;51.494;7.518;2022-07-10T10:30:59;15.50;99.90
45807;DHT22;31507;51.494;7.518;2022-07-10T10:36:02;15.70;99.90
45807;DHT22;31507;51.494;7.518;2022-07-10T10:41:36;15.70;99.90
45807;DHT22;31507;51.494;7.518;2022-07-10T10:49:48;15.40;99.90
45807;DHT22;31507;51.494;7.518;2022-07-10T10:52:15;15.20;99.90
45807;DHT22;31507;51.494;7.518;2022-07-10T10:59:58;15.30;99.90
45807;DHT22;31507;51.494;7.518;2022-07-10T11:02:32;15.40;99.90
45807;DHT22;31507;51.494;7.518;2022-07-10T11:08:00;15.30;99.90
45807;DHT22;31507;51.494;7.518;2022-07-10T11:13:21;14.90;99.90
45807;DHT22;31507;51.494;7.518;2022-07-10T11:15:52;14.90;99.90
45807;DHT22;31507;51.494;7.518;2022-07-10T11:18:19;14.90;99.90
45807;DHT22;31507;51.494;7.518;2022-07-10T11:20:51;15.00;99.90
45807;DHT22;31507;51.494;7.518;2022-07-10T11:23:43;15.20;99.90
45807;DHT22;31507;51.494;7.518;2022-07-10T11:28:50;15.20;99.90
45807;DHT22;31507;51.494;7.518;2022-07-10T11:31:17;15.10;99.90
45807;DHT22;31507;51.494;7.518;2022-07-10T11:33:45;15.20;99.90
45807;DHT22;31507;51.494;7.518;2022-07-10T11:36:13;15.40;99.90
45807;DHT22;31507;51.494;7.518;2022-07-10T11:38:41;15.70;99.90
45807;DHT22;31507;51.494;7.518;2022-07-10T11:41:20;15.90;99.90
45807;DHT22;31507;51.494;7.518;2022-07-10T11:43:52;16.20;99.90
45807;DHT22;31507;51.494;7.518;2022-07-10T11:46:19;16.20;99.90
45807;DHT22;31507;51.494;7.518;2022-07-10T11:48:46;16.00;99.90
45807;DHT22;31507;51.494;7.518;2022-07-10T11:54:04;15.70;99.90
45807;DHT22;31507;51.494;7.518;2022-07-10T11:56:33;15.60;99.90
45807;DHT22;31507;51.494;7.518;2022-07-10T12:01:25;15.80;99.90
45807;DHT22;31507;51.494;7.518;2022-07-10T12:03:55;15.90;99.90
45807;DHT22;31507;51.494;7.518;2022-07-10T12:06:23;15.90;99.90
45807;DHT22;31507;51.494;7.518;2022-07-10T12:08:49;16.00;99.90
45807;DHT22;31507;51.494;7.518;2022-07-10T12:11:16;16.00;99.90
45807;DHT22;31507;51.494;7.518;2022-07-10T12:13:43;15.90;99.90
45807;DHT22;31507;51.494;7.518;2022-07-10T12:16:09;16.00;99.90
45807;DHT22;31507;51.494;7.518;2022-07-10T12:18:35;16.00;99.90
45807;DHT22;31507;51.494;7.518;2022-07-10T12:21:01;16.10;99.90
45807;DHT22;31507;51.494;7.518;2022-07-10T12:23:28;16.00;99.90
45807;DHT22;31507;51.494;7.518;2022-07-10T12:25:55;16.10;99.90
45807;DHT22;31507;51.494;7.518;2022-07-10T12:28:21;16.10;99.90
45807;DHT22;31507;51.494;7.518;2022-07-10T12:30:48;16.20;99.90
45807;DHT22;31507;51.494;7.518;2022-07-10T12:33:22;16.10;99.90
45807;DHT22;31507;51.494;7.518;2022-07-10T12:35:56;16.00;99.90
45807;DHT22;31507;51.494;7.518;2022-07-10T12:38:24;16.00;99.90
45807;DHT22;31507;51.494;7.518;2022-07-10T12:40:51;16.10;99.90
45807;DHT22;31507;51.494;7.518;2022-07-10T12:43:29;16.20;99.90
45807;DHT22;31507;51.494;7.518;2022-07-10T12:46:15;16.20;99.90
45807;DHT22;31507;51.494;7.518;2022-07-10T12:49:04;16.30;99.90
45807;DHT22;31507;51.494;7.518;2022-07-10T12:53:59;16.90;99.90
45807;DHT22;31507;51.494;7.518;2022-07-10T12:58:58;17.80;99.90
45807;DHT22;31507;51.494;7.518;2022-07-10T13:01:38;17.90;99.90
45807;DHT22;31507;51.494;7.518;2022-07-10T13:04:05;18.00;99.90
45807;DHT22;31507;51.494;7.518;2022-07-10T13:06:34;18.10;99.90
45807;DHT22;31507;51.494;7.518;2022-07-10T13:09:02;18.40;99.90
45807;DHT22;31507;51.494;7.518;2022-07-10T13:11:28;18.30;99.90
45807;DHT22;31507;51.494;7.518;2022-07-10T13:13:54;18.40;99.90
45807;DHT22;31507;51.494;7.518;2022-07-10T13:16:21;18.50;99.90
45807;DHT22;31507;51.494;7.518;2022-07-10T13:18:48;18.50;99.90
45807;DHT22;31507;51.494;7.518;2022-07-10T13:21:13;18.50;99.90
45807;DHT22;31507;51.494;7.518;2022-07-10T13:23:39;18.40;99.90
45807;DHT22;31507;51.494;7.518;2022-07-10T13:26:06;18.30;99.90
45807;DHT22;31507;51.494;7.518;2022-07-10T13:28:34;18.00;99.90
45807;DHT22;31507;51.494;7.518;2022-07-10T13:31:00;17.80;99.90
45807;DHT22;31507;51.494;7.518;2022-07-10T13:33:26;18.20;99.90
45807;DHT22;31507;51.494;7.518;2022-07-10T13:35:53;19.10;99.90
45807;DHT22;31507;51.494;7.518;2022-07-10T13:38:19;19.70;99.90
45807;DHT22;31507;51.494;7.518;2022-07-10T13:40:46;20.00;99.90
45807;DHT22;31507;51.494;7.518;2022-07-10T13:43:13;19.90;99.90
45807;DHT22;31507;51.494;7.518;2022-07-10T13:45:39;19.90;99.90
45807;DHT22;31507;51.494;7.518;2022-07-10T13:48:13;20.00;99.90
45807;DHT22;31507;51.494;7.518;2022-07-10T13:50:43;19.50;99.90
45807;DHT22;31507;51.494;7.518;2022-07-10T13:53:12;19.00;99.90
45807;DHT22;31507;51.494;7.518;2022-07-10T13:55:38;18.60;99.90
45807;DHT22;31507;51.494;7.518;2022-07-10T13:58:04;18.10;99.90
45807;DHT22;31507;51.494;7.518;2022-07-10T14:00:30;17.70;99.90
45807;DHT22;31507;51.494;7.518;2022-07-10T14:02:55;17.40;99.90
45807;DHT22;31507;51.494;7.518;2022-07-10T14:05:23;17.30;99.90
45807;DHT22;31507;51.494;7.518;2022-07-10T14:07:49;17.40;99.90
45807;DHT22;31507;51.494;7.518;2022-07-10T14:10:15;17.40;99.90
45807;DHT22;31507;51.494;7.518;2022-07-10T14:12:41;17.40;99.90
45807;DHT22;31507;51.494;7.518;2022-07-10T14:15:07;17.40;99.90
45807;DHT22;31507;51.494;7.518;2022-07-10T14:17:33;17.30;99.90
45807;DHT22;31507;51.494;7.518;2022-07-10T14:19:59;17.20;99.90
45807;DHT22;31507;51.494;7.518;2022-07-10T14:22:24;17.20;99.90
45807;DHT22;31507;51.494;7.518;2022-07-10T14:24:50;17.20;99.90
45807;DHT22;31507;51.494;7.518;2022-07-10T14:27:17;17.40;99.90
45807;DHT22;31507;51.494;7.518;2022-07-10T14:29:42;17.60;99.90
45807;DHT22;31507;51.494;7.518;2022-07-10T14:32:08;18.00;99.90
45807;DHT22;31507;51.494;7.518;2022-07-10T14:34:34;18.30;99.90
45807;DHT22;31507;51.494;7.518;2022-07-10T14:37:00;18.40;99.90
45807;DHT22;31507;51.494;7.518;2022-07-10T14:39:26;18.40;99.90
45807;DHT22;31507;51.494;7.518;2022-07-10T14:41:51;18.30;99.90
45807;DHT22;31507;51.494;7.518;2022-07-10T14:44:17;18.30;99.90
45807;DHT22;31507;51.494;7.518;2022-07-10T14:46:43;18.20;99.90
45807;DHT22;31507;51.494;7.518;2022-07-10T14:49:09;18.30;99.90
45807;DHT22;31507;51.494;7.518;2022-07-10T14:51:34;18.20;99.90
45807;DHT22;31507;51.494;7.518;2022-07-10T14:54:01;18.00;99.90
45807;DHT22;31507;51.494;7.518;2022-07-10T14:56:27;17.80;99.90
45807;DHT22;31507;51.494;7.518;2022-07-10T14:58:52;17.60;99.90
45807;DHT22;31507;51.494;7.518;2022-07-10T15:01:18;17.40;99.90
45807;DHT22;31507;51.494;7.518;2022-07-10T15:03:44;17.10;99.90
45807;DHT22;31507;51.494;7.518;2022-07-10T15:06:10;16.90;99.90
45807;DHT22;31507;51.494;7.518;2022-07-10T15:08:35;16.70;99.90
45807;DHT22;31507;51.494;7.518;2022-07-10T15:11:01;16.50;99.90
45807;DHT22;31507;51.494;7.518;2022-07-10T15:13:28;16.40;99.90
45807;DHT22;31507;51.494;7.518;2022-07-10T15:15:54;16.40;99.90
45807;DHT22;31507;51.494;7.518;2022-07-10T15:18:19;16.30;99.90
45807;DHT22;31507;51.494;7.518;2022-07-10T15:20:45;16.20;99.90
45807;DHT22;31507;51.494;7.518;2022-07-10T15:23:11;16.10;99.90
45807;DHT22;31507;51.494;7.518;2022-07-10T15:25:38;16.10;99.90
45807;DHT22;31507;51.494;7.518;2022-07-10T15:28:05;16.00;99.90
45807;DHT22;31507;51.494;7.518;2022-07-10T15:30:36;16.00;99.90
45807;DHT22;31507;51.494;7.518;2022-07-10T15:33:03;16.00;99.90
45807;DHT22;31507;51.494;7.518;2022-07-10T15:35:29;16.20;99.90
45807;DHT22;31507;51.494;7.518;2022-07-10T15:37:55;16.20;99.90
45807;DHT22;31507;51.494;7.518;2022-07-10T15:40:21;16.30;99.90
45807;DHT22;31507;51.494;7.518;2022-07-10T15:42:47;16.30;99.90
45807;DHT22;31507;51.494;7.518;2022-07-10T15:45:13;16.30;99.90
45807;DHT22;31507;51.494;7.518;2022-07-10T15:47:39;16.30;99.90
45807;DHT22;31507;51.494;7.518;2022-07-10T15:50:05;16.30;99.90
45807;DHT22;31507;51.494;7.518;2022-07-10T15:52:31;16.30;99.90
45807;DHT22;31507;51.494;7.518;2022-07-10T15:54:57;16.30;99.90
45807;DHT22;31507;51.494;7.518;2022-07-10T15:57:22;16.40;99.90
45807;DHT22;31507;51.494;7.518;2022-07-10T15:59:48;16.70;99.90
45807;DHT22;31507;51.494;7.518;2022-07-10T16:02:14;16.90;99.90
45807;DHT22;31507;51.494;7.518;2022-07-10T16:04:39;17.10;99.90
45807;DHT22;31507;51.494;7.518;2022-07-10T16:07:06;17.20;99.90
45807;DHT22;31507;51.494;7.518;2022-07-10T16:09:32;17.20;99.90
45807;DHT22;31507;51.494;7.518;2022-07-10T16:11:57;17.10;99.90
45807;DHT22;31507;51.494;7.518;2022-07-10T16:14:23;17.10;99.90